createdAt,value
2018-07-19T00:01:37.121Z,17.05
2018-07-19T00:04:05.618Z,16.87
2018-07-19T00:06:34.101Z,16.64
2018-07-19T00:09:02.498Z,16.41
2018-07-19T00:11:31.184Z,16.46
2018-07-19T00:13:59.822Z,16.59
2018-07-19T00:16:28.340Z,16.20
2018-07-19T00:18:56.987Z,16.20
2018-07-19T00:21:25.527Z,16.04
2018-07-19T00:23:54.414Z,16.27
2018-07-19T00:26:23.105Z,15.92
2018-07-19T00:28:52.040Z,15.98
2018-07-19T00:31:20.831Z,16.31
2018-07-19T00:33:49.519Z,16.45
2018-07-19T00:36:18.248Z,16.56
2018-07-19T00:38:46.825Z,16.19
2018-07-19T00:41:15.134Z,16.00
2018-07-19T00:43:43.447Z,16.14
2018-07-19T00:46:11.775Z,16.15
2018-07-19T00:48:40.107Z,15.96
2018-07-19T00:51:08.488Z,15.72
2018-07-19T00:53:36.799Z,15.80
2018-07-19T00:56:05.285Z,15.99
2018-07-19T00:58:33.621Z,15.75
2018-07-19T01:01:02.074Z,15.80
2018-07-19T01:03:30.402Z,15.76
2018-07-19T01:05:58.851Z,16.04
2018-07-19T01:08:27.283Z,15.98
2018-07-19T01:10:55.684Z,16.10
2018-07-19T01:13:24.033Z,16.06
2018-07-19T01:15:52.430Z,16.00
2018-07-19T01:18:20.752Z,16.11
2018-07-19T01:20:49.139Z,16.03
2018-07-19T01:23:17.467Z,15.91
2018-07-19T01:25:45.814Z,15.85
2018-07-19T01:28:14.199Z,15.70
2018-07-19T01:30:42.756Z,15.54
2018-07-19T01:33:11.103Z,15.43
2018-07-19T01:35:39.443Z,15.27
2018-07-19T01:38:07.729Z,15.23
2018-07-19T01:40:36.083Z,15.16
2018-07-19T01:43:04.387Z,15.07
2018-07-19T01:45:32.761Z,15.10
2018-07-19T01:48:01.284Z,14.98
2018-07-19T01:50:29.618Z,14.80
2018-07-19T01:52:57.936Z,14.79
2018-07-19T01:55:26.289Z,14.63
2018-07-19T01:57:54.627Z,14.85
2018-07-19T02:00:22.925Z,14.69
2018-07-19T02:02:51.334Z,14.88
2018-07-19T02:05:19.677Z,14.64
2018-07-19T02:07:47.978Z,14.60
2018-07-19T02:10:16.301Z,14.50
2018-07-19T02:12:44.614Z,14.46
2018-07-19T02:15:13.063Z,14.46
2018-07-19T02:17:41.367Z,14.28
2018-07-19T02:20:09.717Z,14.08
2018-07-19T02:22:38.106Z,13.90
2018-07-19T02:25:06.558Z,13.98
2018-07-19T02:27:34.882Z,13.96
2018-07-19T02:30:03.271Z,14.00
2018-07-19T02:32:31.596Z,14.19
2018-07-19T02:34:59.918Z,13.95
2018-07-19T02:37:28.239Z,13.64
2018-07-19T02:39:56.538Z,13.69
2018-07-19T02:42:24.875Z,13.54
2018-07-19T02:44:53.216Z,13.90
2018-07-19T02:47:21.585Z,13.68
2018-07-19T02:49:49.957Z,13.96
2018-07-19T02:52:18.294Z,13.90
2018-07-19T02:54:46.639Z,13.87
2018-07-19T02:57:14.985Z,13.92
2018-07-19T02:59:43.328Z,13.48
2018-07-19T03:02:11.990Z,13.74
2018-07-19T03:04:40.320Z,13.32
2018-07-19T03:07:08.666Z,12.98
2018-07-19T03:09:37.025Z,12.87
2018-07-19T03:12:05.408Z,13.24
2018-07-19T03:14:33.711Z,12.92
2018-07-19T03:17:02.153Z,12.98
2018-07-19T03:19:30.720Z,13.10
2018-07-19T03:21:59.481Z,13.17
2018-07-19T03:24:27.894Z,13.30
2018-07-19T03:26:56.262Z,13.15
2018-07-19T03:29:24.659Z,13.32
2018-07-19T03:31:53.170Z,13.29
2018-07-19T03:34:21.483Z,13.39
2018-07-19T03:36:49.816Z,13.35
2018-07-19T03:39:18.150Z,13.31
2018-07-19T03:41:46.510Z,13.34
2018-07-19T03:44:14.802Z,13.41
2018-07-19T03:46:43.184Z,13.70
2018-07-19T03:49:11.471Z,13.91
2018-07-19T03:51:39.893Z,13.75
2018-07-19T03:54:08.323Z,14.17
2018-07-19T03:56:36.741Z,14.28
2018-07-19T03:59:05.177Z,14.09
2018-07-19T04:01:33.550Z,14.19
2018-07-19T04:04:01.899Z,14.30
2018-07-19T04:06:30.231Z,14.32
2018-07-19T04:08:58.603Z,14.27
2018-07-19T04:11:26.978Z,14.36
2018-07-19T04:13:55.338Z,14.37
2018-07-19T04:16:23.752Z,14.22
2018-07-19T04:18:52.329Z,14.41
2018-07-19T04:21:20.689Z,14.39
2018-07-19T04:23:49.003Z,14.36
2018-07-19T04:26:17.435Z,14.57
2018-07-19T04:28:45.839Z,14.77
2018-07-19T04:31:14.158Z,14.69
2018-07-19T04:33:42.461Z,14.63
2018-07-19T04:36:10.814Z,14.71
2018-07-19T04:38:39.285Z,14.70
2018-07-19T04:41:07.588Z,14.88
2018-07-19T04:43:35.990Z,14.74
2018-07-19T04:46:04.296Z,14.79
2018-07-19T04:48:32.722Z,14.74
2018-07-19T04:51:01.308Z,15.00
2018-07-19T04:53:29.641Z,14.88
2018-07-19T04:55:57.953Z,15.11
2018-07-19T04:58:26.276Z,15.00
2018-07-19T05:00:54.591Z,15.13
2018-07-19T05:03:23.899Z,15.22
2018-07-19T05:05:52.211Z,15.22
2018-07-19T05:08:20.708Z,15.26
2018-07-19T05:10:49.198Z,15.34
2018-07-19T05:13:17.711Z,15.43
2018-07-19T05:15:46.117Z,15.51
2018-07-19T05:18:14.475Z,15.52
2018-07-19T05:20:42.927Z,15.57
2018-07-19T05:23:11.327Z,15.60
2018-07-19T05:25:39.658Z,15.58
2018-07-19T05:28:08.552Z,15.75
2018-07-19T05:30:37.259Z,15.86
2018-07-19T05:33:05.922Z,15.93
2018-07-19T05:35:34.536Z,16.02
2018-07-19T05:38:03.239Z,15.99
2018-07-19T05:40:31.953Z,16.10
2018-07-19T05:43:00.691Z,16.24
2018-07-19T05:45:29.274Z,16.10
2018-07-19T05:47:58.051Z,16.19
2018-07-19T05:50:26.749Z,16.32
2018-07-19T05:52:55.343Z,16.43
2018-07-19T05:55:23.953Z,16.37
2018-07-19T05:57:53.342Z,16.50
2018-07-19T06:00:22.009Z,16.57
2018-07-19T06:02:50.804Z,16.67
2018-07-19T06:05:19.250Z,16.70
2018-07-19T06:07:48.070Z,16.83
2018-07-19T06:10:17.447Z,16.93
2018-07-19T06:12:45.959Z,17.04
2018-07-19T06:15:14.337Z,16.96
2018-07-19T06:17:42.746Z,17.05
2018-07-19T06:20:11.069Z,17.16
2018-07-19T06:22:39.409Z,17.09
2018-07-19T06:25:08.667Z,17.12
2018-07-19T06:27:37.012Z,17.10
2018-07-19T06:30:06.573Z,17.21
2018-07-19T06:32:34.864Z,17.35
2018-07-19T06:35:03.313Z,17.55
2018-07-19T06:37:33.667Z,17.42
2018-07-19T06:40:02.027Z,17.49
2018-07-19T06:42:30.319Z,17.44
2018-07-19T06:44:58.667Z,17.56
2018-07-19T06:47:27.041Z,17.70
2018-07-19T06:49:55.493Z,17.95
2018-07-19T06:52:29.461Z,17.98
2018-07-19T06:54:58.551Z,17.93
2018-07-19T06:57:27.693Z,18.00
2018-07-19T06:59:56.606Z,17.98
2018-07-19T07:02:25.014Z,18.21
2018-07-19T07:04:57.489Z,18.15
2018-07-19T07:07:26.836Z,18.29
2018-07-19T07:09:57.756Z,18.22
2018-07-19T07:12:26.051Z,18.31
2018-07-19T07:14:54.680Z,18.44
2018-07-19T07:17:23.038Z,18.34
2018-07-19T07:19:52.487Z,18.46
2018-07-19T07:22:20.756Z,18.45
2018-07-19T07:24:49.069Z,18.57
2018-07-19T07:27:17.384Z,18.60
2018-07-19T07:29:45.815Z,18.53
2018-07-19T07:32:14.194Z,18.59
2018-07-19T07:34:42.638Z,18.80
2018-07-19T07:37:11.012Z,18.83
2018-07-19T07:39:39.539Z,18.83
2018-07-19T07:42:07.930Z,18.88
2018-07-19T07:44:36.354Z,18.84
2018-07-19T07:47:04.648Z,19.10
2018-07-19T07:49:33.006Z,19.15
2018-07-19T07:52:01.339Z,19.11
2018-07-19T07:54:29.680Z,19.19
2018-07-19T07:56:57.999Z,19.03
2018-07-19T07:59:27.099Z,19.20
2018-07-19T08:01:55.479Z,19.17
2018-07-19T08:04:23.889Z,19.41
2018-07-19T08:06:54.122Z,19.55
2018-07-19T08:09:22.580Z,19.32
2018-07-19T08:11:50.906Z,19.43
2018-07-19T08:14:19.287Z,19.45
2018-07-19T08:16:47.771Z,19.76
2018-07-19T08:19:16.178Z,19.59
2018-07-19T08:21:44.537Z,19.67
2018-07-19T08:24:12.987Z,19.69
2018-07-19T08:26:41.655Z,19.82
2018-07-19T08:29:10.082Z,19.86
2018-07-19T08:31:38.315Z,19.77
2018-07-19T08:34:07.046Z,19.74
2018-07-19T08:36:41.730Z,19.93
2018-07-19T08:39:13.804Z,20.21
2018-07-19T08:44:21.339Z,20.34
2018-07-19T08:46:49.671Z,20.42
2018-07-19T08:49:18.006Z,20.58
2018-07-19T08:51:46.408Z,20.25
2018-07-19T08:54:14.742Z,20.42
2018-07-19T08:56:43.100Z,20.08
2018-07-19T08:59:11.454Z,20.46
2018-07-19T09:01:40.149Z,20.56
2018-07-19T09:04:08.439Z,20.41
2018-07-19T09:06:36.779Z,20.37
2018-07-19T09:09:07.666Z,20.50
2018-07-19T09:11:36.050Z,20.61
2018-07-19T09:14:04.736Z,20.85
2018-07-19T09:16:33.407Z,21.14
2018-07-19T09:19:02.072Z,20.79
2018-07-19T09:21:30.513Z,20.96
2018-07-19T09:23:58.850Z,21.08
2018-07-19T09:26:27.254Z,21.20
2018-07-19T09:28:55.699Z,21.17
2018-07-19T09:31:24.914Z,21.20
2018-07-19T09:33:53.307Z,21.59
2018-07-19T09:36:21.842Z,21.58
2018-07-19T09:38:50.340Z,21.49
2018-07-19T09:41:18.910Z,21.71
2018-07-19T09:43:47.298Z,21.79
2018-07-19T09:46:15.783Z,21.77
2018-07-19T09:48:44.206Z,21.91
2018-07-19T09:51:12.586Z,21.80
2018-07-19T09:53:41.067Z,22.25
2018-07-19T09:56:09.383Z,21.98
2018-07-19T09:58:37.751Z,22.29
2018-07-19T10:01:11.424Z,21.86
2018-07-19T10:03:39.768Z,22.18
2018-07-19T10:06:08.129Z,22.24
2018-07-19T10:08:36.421Z,22.45
2018-07-19T10:11:04.946Z,22.30
2018-07-19T10:13:33.319Z,22.51
2018-07-19T10:16:01.812Z,22.29
2018-07-19T10:18:30.407Z,22.32
2018-07-19T10:20:59.013Z,22.54
2018-07-19T10:23:27.474Z,22.27
2018-07-19T10:25:56.268Z,22.61
2018-07-19T10:28:24.827Z,22.79
2018-07-19T10:30:53.174Z,22.71
2018-07-19T10:33:21.503Z,22.65
2018-07-19T10:35:49.841Z,22.74
2018-07-19T10:38:18.282Z,22.87
2018-07-19T10:40:46.644Z,22.90
2018-07-19T10:43:14.992Z,22.87
2018-07-19T10:45:43.347Z,22.97
2018-07-19T10:48:11.663Z,22.74
2018-07-19T10:50:39.977Z,23.04
2018-07-19T10:53:09.331Z,23.15
2018-07-19T10:55:37.655Z,23.35
2018-07-19T10:58:05.971Z,23.35
2018-07-19T11:00:34.309Z,23.35
2018-07-19T11:03:02.609Z,23.29
2018-07-19T11:05:30.960Z,23.56
2018-07-19T11:07:59.234Z,23.37
2018-07-19T11:10:27.540Z,23.33
2018-07-19T11:12:55.957Z,23.46
2018-07-19T11:15:24.323Z,23.63
2018-07-19T11:17:52.728Z,23.59
2018-07-19T11:20:21.043Z,23.86
2018-07-19T11:22:49.381Z,24.01
2018-07-19T11:25:17.739Z,23.85
2018-07-19T11:27:46.079Z,23.88
2018-07-19T11:30:14.451Z,23.63
2018-07-19T11:32:43.824Z,23.74
2018-07-19T11:35:12.168Z,23.65
2018-07-19T11:37:40.507Z,23.96
2018-07-19T11:40:08.950Z,23.79
2018-07-19T11:42:37.287Z,24.00
2018-07-19T11:45:06.198Z,24.06
2018-07-19T11:47:34.616Z,24.03
2018-07-19T11:50:02.953Z,24.03
2018-07-19T11:52:31.339Z,23.74
2018-07-19T11:54:59.778Z,23.68
2018-07-19T11:57:28.236Z,23.90
2018-07-19T11:59:56.754Z,23.62
2018-07-19T12:02:25.168Z,23.53
2018-07-19T12:04:53.427Z,23.97
2018-07-19T12:07:21.776Z,24.39
2018-07-19T12:09:50.045Z,24.42
2018-07-19T12:12:18.447Z,24.21
2018-07-19T12:14:46.776Z,24.51
2018-07-19T12:17:15.261Z,24.60
2018-07-19T12:19:43.538Z,24.54
2018-07-19T12:22:11.871Z,24.80
2018-07-19T12:24:40.238Z,24.62
2018-07-19T12:27:08.532Z,24.67
2018-07-19T12:29:36.992Z,24.33
2018-07-19T12:32:05.375Z,24.44
2018-07-19T12:34:33.813Z,24.65
2018-07-19T12:37:02.107Z,24.85
2018-07-19T12:39:30.517Z,24.85
2018-07-19T12:41:59.090Z,24.46
2018-07-19T12:44:27.503Z,24.73
2018-07-19T12:46:55.824Z,24.81
2018-07-19T12:49:24.252Z,24.70
2018-07-19T12:51:52.633Z,24.87
2018-07-19T12:54:21.072Z,24.82
2018-07-19T12:56:49.507Z,25.05
2018-07-19T12:59:17.949Z,25.11
2018-07-19T13:01:46.340Z,24.98
2018-07-19T13:04:14.686Z,24.84
2018-07-19T13:06:43.111Z,25.08
2018-07-19T13:09:11.455Z,24.97
2018-07-19T13:11:39.858Z,24.71
2018-07-19T13:14:08.211Z,24.80
2018-07-19T13:16:36.522Z,25.12
2018-07-19T13:19:04.908Z,24.70
2018-07-19T13:21:33.170Z,24.91
2018-07-19T13:24:02.419Z,25.01
2018-07-19T13:26:31.251Z,25.06
2018-07-19T13:28:59.749Z,25.27
2018-07-19T13:31:28.034Z,25.21
2018-07-19T13:33:56.477Z,25.11
2018-07-19T13:36:24.809Z,25.11
2018-07-19T13:38:53.289Z,25.24
2018-07-19T13:41:21.996Z,25.34
2018-07-19T13:43:50.401Z,25.40
2018-07-19T13:46:18.847Z,25.36
2018-07-19T13:48:47.212Z,25.60
2018-07-19T13:51:15.601Z,25.42
2018-07-19T13:54:16.116Z,25.66
2018-07-19T13:57:00.439Z,25.50
2018-07-19T13:59:28.742Z,25.63
2018-07-19T14:01:58.272Z,25.58
2018-07-19T14:04:26.763Z,25.50
2018-07-19T14:06:55.342Z,25.58
2018-07-19T14:09:23.766Z,25.55
2018-07-19T14:11:52.124Z,25.62
2018-07-19T14:14:20.486Z,25.69
2018-07-19T14:16:48.897Z,25.88
2018-07-19T14:19:17.343Z,25.40
2018-07-19T14:21:45.699Z,25.52
2018-07-19T14:24:14.126Z,25.57
2018-07-19T14:26:42.508Z,25.38
2018-07-19T14:29:10.877Z,25.47
2018-07-19T14:31:39.190Z,25.56
2018-07-19T14:34:07.518Z,25.65
2018-07-19T14:36:35.835Z,25.41
2018-07-19T14:39:06.638Z,25.23
2018-07-19T14:41:34.956Z,25.78
2018-07-19T14:44:03.391Z,25.67
2018-07-19T14:46:32.139Z,25.65
2018-07-19T14:49:00.483Z,25.70
2018-07-19T14:51:29.228Z,25.77
2018-07-19T14:53:57.756Z,25.55
2018-07-19T14:56:26.039Z,25.68
2018-07-19T14:58:54.709Z,25.61
2018-07-19T15:01:23.545Z,25.78
2018-07-19T15:03:52.305Z,25.85
2018-07-19T15:06:21.200Z,25.70
2018-07-19T15:08:49.618Z,25.95
2018-07-19T15:11:19.441Z,26.04
2018-07-19T15:13:48.067Z,26.17
2018-07-19T15:16:17.061Z,25.84
2018-07-19T15:18:45.474Z,25.60
2018-07-19T15:21:13.843Z,25.42
2018-07-19T15:23:42.450Z,25.57
2018-07-19T15:26:10.925Z,25.34
2018-07-19T15:28:39.263Z,25.74
2018-07-19T15:31:07.627Z,25.29
2018-07-19T15:33:36.007Z,25.40
2018-07-19T15:36:04.427Z,25.52
2018-07-19T15:38:32.839Z,25.65
2018-07-19T15:41:01.524Z,25.62
2018-07-19T15:43:29.864Z,25.55
2018-07-19T15:45:58.263Z,25.64
2018-07-19T15:48:26.530Z,25.74
2018-07-19T15:50:54.875Z,25.81
2018-07-19T15:53:23.221Z,25.45
2018-07-19T15:55:51.591Z,25.70
2018-07-19T15:58:19.986Z,25.62
2018-07-19T16:00:48.441Z,25.36
2018-07-19T16:03:16.876Z,25.19
2018-07-19T16:05:45.246Z,25.58
2018-07-19T16:08:13.517Z,25.70
2018-07-19T16:10:41.835Z,25.73
2018-07-19T16:13:10.279Z,25.73
2018-07-19T16:15:38.642Z,25.29
2018-07-19T16:18:07.529Z,25.57
2018-07-19T16:20:36.360Z,25.90
2018-07-19T16:23:06.270Z,25.70
2018-07-19T16:25:34.930Z,26.06
2018-07-19T16:28:03.621Z,25.88
2018-07-19T16:30:33.469Z,25.72
2018-07-19T16:33:02.140Z,25.64
2018-07-19T16:35:30.873Z,25.55
2018-07-19T16:37:59.685Z,25.79
2018-07-19T16:40:28.095Z,25.53
2018-07-19T16:42:58.010Z,25.54
2018-07-19T16:45:26.817Z,25.59
2018-07-19T16:47:55.626Z,25.69
2018-07-19T16:50:24.570Z,25.80
2018-07-19T16:52:53.187Z,25.63
2018-07-19T16:55:21.902Z,25.42
2018-07-19T16:57:50.467Z,25.62
2018-07-19T17:00:19.447Z,25.70
2018-07-19T17:02:48.113Z,25.41
2018-07-19T17:05:16.591Z,25.59
2018-07-19T17:07:44.900Z,25.59
2018-07-19T17:10:13.237Z,25.72
2018-07-19T17:12:41.775Z,25.50
2018-07-19T17:15:10.124Z,25.69
2018-07-19T17:17:38.445Z,25.62
2018-07-19T17:20:06.936Z,25.58
2018-07-19T17:22:35.487Z,25.30
2018-07-19T17:25:03.839Z,25.33
2018-07-19T17:27:32.353Z,25.25
2018-07-19T17:30:00.854Z,25.23
2018-07-19T17:32:29.239Z,25.19
2018-07-19T17:34:57.859Z,25.03
2018-07-19T17:37:26.176Z,25.02
2018-07-19T17:39:54.979Z,25.15
2018-07-19T17:42:23.549Z,25.27
2018-07-19T17:44:52.481Z,24.99
2018-07-19T17:47:20.840Z,25.12
2018-07-19T17:49:49.145Z,25.13
2018-07-19T17:52:17.494Z,25.17
2018-07-19T17:54:46.582Z,24.97
2018-07-19T17:57:15.023Z,25.10
2018-07-19T17:59:43.518Z,24.95
2018-07-19T18:02:12.246Z,24.89
2018-07-19T18:04:40.685Z,25.10
2018-07-19T18:07:09.274Z,24.88
2018-07-19T18:09:37.691Z,24.82
2018-07-19T18:12:06.209Z,24.67
2018-07-19T18:14:34.886Z,24.77
2018-07-19T18:17:03.296Z,24.41
2018-07-19T18:19:31.794Z,24.34
2018-07-19T18:22:00.185Z,24.30
2018-07-19T18:24:28.515Z,24.20
2018-07-19T18:26:57.000Z,24.10
2018-07-19T18:29:25.506Z,23.83
2018-07-19T18:31:54.888Z,23.90
2018-07-19T18:34:23.172Z,23.62
2018-07-19T18:36:51.539Z,23.36
2018-07-19T18:39:19.982Z,23.28
2018-07-19T18:41:48.427Z,23.24
2018-07-19T18:44:16.744Z,23.09
2018-07-19T18:46:45.103Z,23.23
2018-07-19T18:49:13.562Z,22.90
2018-07-19T18:51:42.021Z,22.86
2018-07-19T18:54:11.943Z,22.18
2018-07-19T18:56:41.144Z,21.85
2018-07-19T18:59:10.023Z,21.69
2018-07-19T19:01:38.416Z,21.56
2018-07-19T19:04:06.725Z,21.46
2018-07-19T19:06:36.216Z,21.36
2018-07-19T19:09:07.162Z,21.26
2018-07-19T19:11:36.026Z,21.31
2018-07-19T19:14:04.570Z,21.27
2018-07-19T19:16:32.891Z,21.23
2018-07-19T19:19:01.620Z,21.08
2018-07-19T19:21:30.021Z,20.95
2018-07-19T19:23:58.419Z,20.89
2018-07-19T19:26:27.205Z,20.79
2018-07-19T19:29:11.488Z,20.64
2018-07-19T19:31:47.818Z,20.64
2018-07-19T19:34:16.391Z,20.31
2018-07-19T19:36:47.405Z,20.39
2018-07-19T19:39:16.010Z,20.43
2018-07-19T19:41:44.531Z,20.30
2018-07-19T19:44:13.480Z,20.15
2018-07-19T19:46:42.337Z,20.05
2018-07-19T19:49:11.095Z,20.27
2018-07-19T19:51:39.656Z,20.18
2018-07-19T19:54:08.528Z,20.10
2018-07-19T19:56:37.438Z,19.93
2018-07-19T19:59:06.326Z,19.88
2018-07-19T20:01:35.851Z,19.70
2018-07-19T20:04:04.401Z,19.60
2018-07-19T20:06:32.942Z,19.41
2018-07-19T20:09:01.527Z,19.44
2018-07-19T20:11:30.036Z,19.19
2018-07-19T20:13:59.656Z,19.24
2018-07-19T20:16:28.024Z,19.16
2018-07-19T20:18:56.519Z,19.14
2018-07-19T20:21:25.187Z,19.03
2018-07-19T20:23:53.741Z,18.93
2018-07-19T20:26:22.222Z,18.84
2018-07-19T20:28:50.594Z,18.76
2018-07-19T20:31:18.899Z,18.61
2018-07-19T20:33:47.225Z,18.62
2018-07-19T20:36:15.576Z,18.57
2018-07-19T20:38:43.914Z,18.43
2018-07-19T20:41:12.255Z,18.38
2018-07-19T20:43:40.680Z,18.23
2018-07-19T20:46:09.142Z,18.39
2018-07-19T20:48:37.509Z,18.37
2018-07-19T20:51:06.031Z,18.31
2018-07-19T20:53:34.412Z,18.08
2018-07-19T20:56:02.722Z,17.82
2018-07-19T20:58:31.191Z,17.93
2018-07-19T21:00:59.492Z,17.91
2018-07-19T21:03:27.835Z,17.85
2018-07-19T21:05:56.139Z,17.89
2018-07-19T21:08:24.533Z,17.38
2018-07-19T21:10:52.826Z,17.36
2018-07-19T21:13:21.184Z,17.30
2018-07-19T21:15:49.459Z,17.32
2018-07-19T21:18:18.096Z,17.47
2018-07-19T21:20:46.411Z,17.07
2018-07-19T21:23:14.723Z,17.07
2018-07-19T21:25:43.171Z,17.01
2018-07-19T21:28:11.474Z,17.16
2018-07-19T21:30:39.816Z,16.92
2018-07-19T21:33:08.194Z,16.81
2018-07-19T21:35:36.516Z,16.86
2018-07-19T21:38:04.845Z,16.89
2018-07-19T21:40:33.146Z,17.07
2018-07-19T21:43:01.468Z,16.90
2018-07-19T21:45:29.765Z,16.78
2018-07-19T21:47:58.160Z,16.64
2018-07-19T21:50:27.190Z,16.45
2018-07-19T21:52:55.506Z,16.44
2018-07-19T21:55:23.818Z,16.38
2018-07-19T21:57:52.378Z,16.17
2018-07-19T22:00:20.693Z,16.04
2018-07-19T22:02:49.016Z,16.16
2018-07-19T22:05:17.359Z,16.32
2018-07-19T22:07:45.618Z,16.31
2018-07-19T22:10:15.790Z,16.29
2018-07-19T22:12:44.167Z,16.23
2018-07-19T22:15:12.532Z,15.98
2018-07-19T22:17:40.829Z,15.93
2018-07-19T22:20:09.201Z,15.71
2018-07-19T22:22:37.539Z,15.77
2018-07-19T22:25:05.905Z,15.86
2018-07-19T22:27:34.218Z,15.75
2018-07-19T22:30:02.536Z,15.79
2018-07-19T22:32:30.823Z,15.71
2018-07-19T22:34:59.139Z,15.56
2018-07-19T22:37:27.623Z,15.39
2018-07-19T22:39:55.962Z,15.46
2018-07-19T22:42:24.324Z,15.57
2018-07-19T22:44:52.638Z,15.44
2018-07-19T22:47:20.955Z,15.43
2018-07-19T22:49:49.417Z,15.38
2018-07-19T22:52:17.716Z,15.31
2018-07-19T22:54:46.047Z,15.22
2018-07-19T22:57:14.365Z,15.40
2018-07-19T22:59:42.677Z,15.64
2018-07-19T23:02:11.000Z,15.51
2018-07-19T23:04:39.300Z,15.67
2018-07-19T23:07:07.747Z,15.60
2018-07-19T23:09:36.062Z,15.33
2018-07-19T23:12:04.391Z,14.87
2018-07-19T23:14:32.700Z,14.92
2018-07-19T23:17:01.017Z,15.30
2018-07-19T23:19:29.494Z,15.13
2018-07-19T23:21:57.808Z,15.28
2018-07-19T23:24:26.173Z,15.03
2018-07-19T23:26:54.552Z,15.20
2018-07-19T23:29:22.919Z,14.85
2018-07-19T23:31:51.235Z,14.73
2018-07-19T23:34:19.571Z,14.56
2018-07-19T23:36:52.077Z,14.62
2018-07-19T23:39:24.472Z,14.77
2018-07-19T23:41:57.141Z,14.38
2018-07-19T23:44:30.616Z,14.53
2018-07-19T23:47:02.700Z,14.66
2018-07-19T23:49:31.070Z,14.55
2018-07-19T23:51:59.346Z,14.63
2018-07-19T23:54:27.755Z,14.04
2018-07-19T23:56:56.148Z,14.24
2018-07-19T23:59:24.560Z,14.46
